Wednesday, December 12, 2018, 11:13 PM EST
Back to Local

KLEB, Lebanon Municipal Airport

Location: Lebanon, NH, United States Lat: 43.633
Local Time: 11:13 PM EST ( 4:13 GMT) Lon: -72.3
Time Zone: US/Eastern Elev: 597 ft

Show me the last for .
Show Decoded

2018-12-12 22:53 METAR KLEB 130353Z AUTO 00000KT 10SM CLR M13/M16 A3032 RMK AO2 SLP284 T11281161
                 =
2018-12-12 21:53 METAR KLEB 130253Z 00000KT 10SM CLR M12/M16 A3029 RMK AO2 SLP273 T11171156 51018
                 =
2018-12-12 20:53 METAR KLEB 130153Z 36005KT 10SM CLR M12/M16 A3027 RMK AO2 SLP267 T11171161 =
2018-12-12 19:53 METAR KLEB 130053Z 00000KT 10SM CLR M11/M16 A3027 RMK AO2 SLP267 T11111161 =
2018-12-12 18:53 METAR KLEB 122353Z 05003KT 10SM CLR M10/M16 A3024 RMK AO2 SLP257 T11001161 11022
                 21106 53032 =
2018-12-12 17:53 METAR KLEB 122253Z 02003KT 10SM CLR M08/M16 A3020 RMK AO2 SLP243 T10831156 =
2018-12-12 16:53 METAR KLEB 122153Z 30004KT 10SM CLR M05/M15 A3018 RMK AO2 SLP233 T10501150 =
2018-12-12 15:53 METAR KLEB 122053Z 36008KT 10SM CLR M04/M16 A3015 RMK AO2 SLP221 T10391161 53023
                 =
2018-12-12 14:53 METAR KLEB 121953Z 35006KT 10SM CLR M03/M15 A3012 RMK AO2 SLP211 T10281150 =
2018-12-12 13:53 METAR KLEB 121853Z 31011KT 10SM CLR M02/M13 A3009 RMK AO2 SLP202 T10221128 =
2018-12-12 12:53 METAR KLEB 121753Z 33012G21KT 10SM FEW031 M02/M12 A3008 RMK AO2 SLP198 T10221117
                 11017 21083 53010 =
2018-12-12 11:53 METAR KLEB 121653Z 34014G20KT 10SM FEW030 M02/M11 A3006 RMK AO2 SLP192 T10171111
                 =
2018-12-12 10:53 METAR KLEB 121553Z 32013G18KT 10SM SCT028 OVC050 M02/M10 A3005 RMK AO2 SLP188
                 T10221100 =
2018-12-12 09:53 METAR KLEB 121453Z 32007KT 10SM BKN055 M02/M09 A3005 RMK AO2 SLP188 T10221094
                 51022 =
2018-12-12 08:53 METAR KLEB 121353Z 00000KT 9SM OVC060 M04/M09 A3003 RMK AO2 SLP183 T10441089 =
2018-12-12 07:53 METAR KLEB 121253Z 00000KT 8SM OVC065 M07/M10 A3000 RMK AO2 SLP174 T10671100 =
2018-12-12 07:12 METAR KLEB 121212Z 00000KT 9SM SCT020 OVC065 M08/M11 A2999 RMK AO2 T10831111 =
2018-12-12 06:53 METAR KLEB 121153Z 00000KT 7SM BKN019 OVC065 M08/M11 A2998 RMK AO2 SLP168 60000
                 T10781106 11067 21083 53020 =
2018-12-12 06:15 METAR KLEB 121115Z 00000KT 9SM SCT022 OVC060 M07/M11 A2997 RMK AO2 T10671106 =
2018-12-12 05:53 METAR KLEB 121053Z AUTO 00000KT 8SM OVC024 M07/M11 A2996 RMK AO2 SLP159
                 T10671106 =
2018-12-12 05:29 METAR KLEB 121029Z AUTO 00000KT 10SM BKN025 BKN029 OVC060 M07/M11 A2995 RMK AO2
                 T10721106 =
2018-12-12 05:12 METAR KLEB 121012Z AUTO 00000KT 9SM SCT025 OVC060 M07/M11 A2994 RMK AO2
                 T10671106 =
2018-12-12 04:53 METAR KLEB 120953Z AUTO 00000KT 9SM BKN024 BKN035 OVC065 M07/M11 A2994 RMK AO2
                 SNE14 SLP150 P0000 T10671111 =
2018-12-12 04:38 METAR KLEB 120938Z AUTO 00000KT 10SM BKN024 OVC035 M07/M11 A2994 RMK AO2 SNE14
                 P0000 T10671111 =
2018-12-12 03:53 METAR KLEB 120853Z AUTO 00000KT 5SM -SN BKN044 OVC060 M07/M11 A2992 RMK AO2
                 SNB34 SLP146 P0000 60000 T10721106 51005 =
2018-12-12 02:53 METAR KLEB 120753Z AUTO 00000KT 10SM BKN037 OVC070 M07/M11 A2992 RMK AO2 SLP146
                 T10721111 =
2018-12-12 01:53 METAR KLEB 120653Z AUTO 00000KT 10SM BKN060 OVC075 M08/M11 A2991 RMK AO2 SLP143
                 T10781111 =
2018-12-12 00:53 METAR KLEB 120553Z AUTO 00000KT 10SM OVC070 M08/M11 A2991 RMK AO2 SLP141 I6000
                 T10781111 11072 21100 56011 =
2018-12-11 23:53 METAR KLEB 120453Z AUTO 00000KT 10SM OVC070 M09/M12 A2992 RMK AO2 SLP146
                 T10891117 410171150 =

Support USWX by starting your Amazon purchase here.